Time;durP1;ratioP1;P1;durP2;ratioP2;P2;SDS_P1;SDS_P2;PMS_P1;PMS_P2;Temp;Humidity;BMP_temperature;BMP_pressure;BME280_temperature;BME280_humidity;BME280_pressure;Samples;Min_cycle;Max_cycle;Signal;HPM_P1;HPM_P2
2022/06/04 00:02:17;;;;;;;12.50;8.25;;;;;;;18.15;70.90;100298.50;2771831;83;21094;-90
2022/06/04 00:06:18;;;;;;;7.83;7.05;;;;;;;18.15;70.79;100294.98;2794766;83;22701;-93
2022/06/04 00:19:07;;;;;;;9.70;8.05;;;;;;;18.05;70.81;100282.56;2676369;86;21134;-89
2022/06/04 00:23:11;;;;;;;9.85;8.88;;;;;;;18.08;70.51;100271.47;2697593;86;21075;-92
2022/06/04 00:27:19;;;;;;;9.43;8.23;;;;;;;18.09;70.30;100271.80;2685749;86;21148;-91
2022/06/04 00:31:20;;;;;;;32.50;12.18;;;;;;;18.07;70.55;100271.11;2669264;86;21657;-91
2022/06/04 00:35:22;;;;;;;37.95;11.70;;;;;;;18.03;70.88;100259.03;2710582;87;21107;-88
2022/06/04 00:39:24;;;;;;;8.93;7.67;;;;;;;18.02;71.38;100260.05;2688144;86;21060;-90
2022/06/04 00:43:25;;;;;;;12.15;9.00;;;;;;;17.95;71.75;100250.97;2685945;86;21135;-88
2022/06/04 00:47:30;;;;;;;11.33;9.18;;;;;;;17.91;71.97;100242.41;2713590;86;21068;-91
2022/06/04 00:51:31;;;;;;;12.73;9.08;;;;;;;17.85;72.12;100246.63;2739430;85;21043;-89
2022/06/04 00:56:05;;;;;;;10.32;8.93;;;;;;;17.76;72.41;100246.34;2766597;82;21134;-91
2022/06/04 01:00:24;;;;;;;9.30;8.50;;;;;;;17.71;72.81;100237.96;2782171;83;21147;-92
2022/06/04 01:04:48;;;;;;;63.15;17.92;;;;;;;17.68;72.86;100237.80;2753154;83;21110;-92
2022/06/04 01:09:01;;;;;;;37.13;13.25;;;;;;;17.66;72.81;100237.63;2735280;83;21090;-91
2022/06/04 01:13:33;;;;;;;11.03;9.10;;;;;;;17.61;72.94;100239.51;2766405;84;21058;-91
2022/06/04 01:17:45;;;;;;;10.78;9.73;;;;;;;17.52;73.31;100244.56;2768309;83;21094;-89
2022/06/04 01:22:10;;;;;;;13.28;10.28;;;;;;;17.43;73.42;100235.68;2769527;83;21604;-93
2022/06/04 01:26:48;;;;;;;11.57;8.88;;;;;;;17.44;73.51;100246.77;2765203;85;21068;-93
2022/06/04 01:30:54;;;;;;;13.22;9.13;;;;;;;17.40;73.61;100236.03;2695373;87;21808;-89
2022/06/04 01:35:12;;;;;;;;;;;;;;;17.38;73.81;100238.05;2711943;87;21110;-91
2022/06/04 01:43:33;;;;;;;18.70;11.30;;;;;;;17.31;74.65;100229.83;3043334;77;22915;-60
2022/06/04 01:47:36;;;;;;;17.27;10.58;;;;;;;17.28;75.00;100226.97;2972881;80;20975;-62
2022/06/04 01:51:38;;;;;;;18.17;10.28;;;;;;;17.32;75.11;100219.93;2948437;79;20968;-60
2022/06/04 01:55:47;;;;;;;14.73;10.72;;;;;;;17.36;75.92;100227.98;3006958;78;21052;-62
2022/06/04 01:59:56;;;;;;;13.93;9.35;;;;;;;17.33;75.54;100232.36;2991537;78;21042;-60
2022/06/04 02:04:11;;;;;;;18.75;10.72;;;;;;;17.21;75.71;100227.33;2974729;79;21022;-61
2022/06/04 02:08:17;;;;;;;10.23;8.88;;;;;;;17.20;75.77;100228.34;2973352;79;20963;-60
2022/06/04 02:12:20;;;;;;;10.30;9.30;;;;;;;17.20;75.79;100237.75;2974422;79;21050;-60
2022/06/04 02:16:46;;;;;;;10.85;9.75;;;;;;;17.23;75.87;100243.30;2974778;77;21058;-61
2022/06/04 02:20:47;;;;;;;11.60;9.95;;;;;;;17.25;75.87;100235.38;2970584;79;20975;-61
2022/06/04 02:24:49;;;;;;;12.10;10.68;;;;;;;17.24;76.45;100238.25;2974444;80;21072;-60
2022/06/04 02:28:52;;;;;;;15.58;11.95;;;;;;;17.12;76.57;100231.88;2974612;79;20964;-60
2022/06/04 02:33:07;;;;;;;13.20;10.15;;;;;;;17.16;76.49;100226.16;2974634;79;20999;-62
2022/06/04 02:37:16;;;;;;;11.95;9.68;;;;;;;17.22;75.76;100223.63;2954510;80;20955;-60
2022/06/04 02:41:31;;;;;;;14.13;10.35;;;;;;;17.27;75.33;100221.26;2967492;79;21035;-61
2022/06/04 02:46:05;;;;;;;12.40;9.40;;;;;;;17.27;75.02;100214.54;2974157;80;20992;-59
2022/06/04 02:50:15;;;;;;;13.18;10.65;;;;;;;17.29;75.06;100211.69;2918229;80;20951;-60
2022/06/04 02:54:38;;;;;;;12.10;10.53;;;;;;;17.31;75.01;100210.19;2973908;77;20984;-61
2022/06/04 02:58:43;;;;;;;13.90;9.53;;;;;;;17.34;74.74;100207.16;2956463;80;21074;-60
2022/06/04 03:02:45;;;;;;;15.75;10.05;;;;;;;17.35;74.78;100210.17;2971695;80;20975;-60
2022/06/04 03:06:48;;;;;;;13.93;10.13;;;;;;;17.38;74.72;100209.30;2973881;79;20980;-63
2022/06/04 03:10:50;;;;;;;16.73;10.50;;;;;;;17.45;74.81;100208.11;2973645;80;21319;-62
2022/06/04 03:14:51;;;;;;;16.75;11.80;;;;;;;17.51;74.63;100211.47;2973126;80;21015;-62
2022/06/04 03:18:52;;;;;;;12.20;10.28;;;;;;;17.54;74.63;100208.92;2943227;80;21050;-63
2022/06/04 03:22:54;;;;;;;15.50;10.60;;;;;;;17.59;74.72;100209.75;2813922;83;20971;-62
2022/06/04 03:26:56;;;;;;;13.98;11.55;;;;;;;17.66;74.60;100218.80;2888370;82;21036;-63
2022/06/04 03:30:58;;;;;;;16.48;11.97;;;;;;;17.68;74.58;100220.80;2885283;80;20972;-62
2022/06/04 03:34:59;;;;;;;13.60;10.23;;;;;;;17.69;74.00;100221.16;2958923;80;20983;-62
2022/06/04 03:39:03;;;;;;;13.45;10.23;;;;;;;17.72;74.30;100242.82;2958616;80;20968;-63
2022/06/04 03:43:13;;;;;;;13.32;11.53;;;;;;;17.47;76.79;100290.78;2915760;80;21010;-62
2022/06/04 03:47:17;;;;;;;13.15;10.15;;;;;;;17.31;76.02;100247.83;2862283;82;21008;-64
2022/06/04 03:51:31;;;;;;;11.35;9.83;;;;;;;17.29;77.08;100299.06;2916813;81;21014;-63
2022/06/04 03:55:32;;;;;;;11.88;9.50;;;;;;;17.37;76.29;100263.26;2885174;82;20992;-63
2022/06/04 03:59:33;;;;;;;10.63;8.88;;;;;;;17.48;76.67;100295.15;2885392;82;21060;-62
2022/06/04 04:03:34;;;;;;;63.48;19.48;;;;;;;17.58;76.45;100271.28;2882907;82;21015;-64
2022/06/04 04:07:36;;;;;;;11.28;8.38;;;;;;;17.67;76.50;100287.71;2932398;80;20928;-63
2022/06/04 04:11:37;;;;;;;11.65;10.10;;;;;;;17.69;75.80;100273.61;2861341;80;21009;-63
2022/06/04 04:15:40;;;;;;;14.40;9.28;;;;;;;17.77;75.80;100280.30;2917200;81;21019;-63
2022/06/04 04:19:42;;;;;;;12.82;9.90;;;;;;;17.84;76.32;100292.55;2885182;82;21070;-63
2022/06/04 04:23:44;;;;;;;13.85;10.55;;;;;;;17.81;75.95;100295.08;2868236;82;21059;-63
2022/06/04 04:27:47;;;;;;;9.38;8.53;;;;;;;17.81;76.05;100310.39;2894090;81;20962;-63
2022/06/04 04:31:48;;;;;;;17.20;9.80;;;;;;;17.88;76.12;100308.68;2885098;82;20992;-64
2022/06/04 04:35:50;;;;;;;11.85;9.33;;;;;;;17.94;76.87;100317.91;2869842;82;21043;-63
2022/06/04 04:39:51;;;;;;;17.20;9.73;;;;;;;18.05;76.75;100310.83;2809212;82;20992;-64
2022/06/04 04:43:53;;;;;;;12.90;9.75;;;;;;;18.10;76.69;100316.55;2891409;82;20972;-60
2022/06/04 04:47:56;;;;;;;10.70;8.18;;;;;;;18.21;76.23;100325.23;2858186;82;21029;-60
2022/06/04 04:51:58;;;;;;;12.47;9.73;;;;;;;18.11;76.43;100320.91;2865882;83;20970;-61
2022/06/04 04:55:59;;;;;;;11.45;9.50;;;;;;;18.12;77.60;100305.09;2888417;80;21000;-61
2022/06/04 05:00:06;;;;;;;13.13;10.63;;;;;;;18.14;78.07;100311.63;2788758;83;21085;-61
2022/06/04 05:04:08;;;;;;;15.15;11.83;;;;;;;18.23;77.72;100321.86;2813654;82;20996;-64
2022/06/04 05:08:09;;;;;;;13.62;10.45;;;;;;;18.30;77.64;100321.50;2891360;80;20995;-62
2022/06/04 05:12:11;;;;;;;17.57;12.15;;;;;;;18.47;78.23;100322.73;2915719;81;20986;-64
2022/06/04 05:16:12;;;;;;;12.90;10.90;;;;;;;18.72;78.31;100309.14;2922071;80;21006;-62
2022/06/04 05:20:14;;;;;;;11.00;9.98;;;;;;;18.87;77.38;100317.28;2882575;77;68113;-89
2022/06/04 05:24:26;;;;;;;16.73;9.85;;;;;;;18.95;77.15;100323.94;2836165;82;21023;-88
2022/06/04 05:28:27;;;;;;;10.70;9.68;;;;;;;19.04;76.79;100321.56;2829777;82;20987;-87
2022/06/04 05:32:28;;;;;;;16.67;11.33;;;;;;;19.16;76.28;100326.51;2823513;82;21249;-87
2022/06/04 05:36:30;;;;;;;16.45;11.83;;;;;;;19.32;76.31;100325.02;2836350;83;21144;-87
2022/06/04 05:40:31;;;;;;;14.47;12.95;;;;;;;19.51;74.94;100321.47;2825016;83;21382;-88
2022/06/04 05:44:33;;;;;;;12.90;11.15;;;;;;;19.60;74.96;100331.17;2836982;83;21050;-87
2022/06/04 05:48:40;;;;;;;13.38;10.10;;;;;;;19.77;75.25;100326.96;2799138;84;21530;-88
2022/06/04 05:52:42;;;;;;;15.85;11.78;;;;;;;19.94;74.72;100329.80;2824648;83;21082;-89
2022/06/04 05:56:46;;;;;;;14.78;10.23;;;;;;;20.12;74.74;100336.69;2853139;82;21023;-88
2022/06/04 06:00:48;;;;;;;12.07;10.82;;;;;;;20.26;74.69;100333.67;2894482;80;21038;-92
2022/06/04 06:04:49;;;;;;;90.65;23.00;;;;;;;20.35;74.26;100325.77;2900721;82;21506;-88
2022/06/04 06:08:52;;;;;;;15.18;11.35;;;;;;;20.53;73.00;100321.28;2898702;81;21050;-88
2022/06/04 06:12:54;;;;;;;17.00;10.55;;;;;;;20.63;71.19;100323.67;2894789;81;21087;-90
2022/06/04 06:16:55;;;;;;;16.07;10.58;;;;;;;20.79;73.17;100325.32;2900804;81;21518;-88
2022/06/04 06:20:57;;;;;;;14.35;12.07;;;;;;;21.00;71.70;100324.17;2902135;81;20996;-91
2022/06/04 06:24:58;;;;;;;13.05;11.15;;;;;;;21.21;70.26;100331.45;2894742;80;21173;-89
2022/06/04 06:29:03;;;;;;;11.65;10.28;;;;;;;21.35;68.33;100332.39;2910623;80;21645;-90
2022/06/04 06:33:05;;;;;;;12.80;10.63;;;;;;;21.36;68.44;100336.27;2900209;80;21028;-86
2022/06/04 06:37:06;;;;;;;16.37;11.68;;;;;;;21.43;67.45;100325.50;2905372;80;21059;-86
2022/06/04 06:41:08;;;;;;;12.65;10.10;;;;;;;21.50;68.57;100327.72;2896892;81;21039;-90
2022/06/04 06:45:10;;;;;;;14.68;12.18;;;;;;;21.63;68.01;100335.63;2903134;81;20995;-87
2022/06/04 06:49:25;;;;;;;13.58;10.68;;;;;;;21.71;67.65;100338.20;2900741;80;20999;-85
2022/06/04 06:53:26;;;;;;;12.55;10.82;;;;;;;21.76;67.33;100338.43;2894444;81;21042;-89
2022/06/04 06:57:27;;;;;;;12.55;10.10;;;;;;;21.81;66.79;100344.11;2900118;80;20977;-89
2022/06/04 07:01:31;;;;;;;12.25;10.95;;;;;;;21.88;67.18;100351.43;2895995;80;21030;-90
2022/06/04 07:05:32;;;;;;;11.45;10.45;;;;;;;21.96;67.43;100358.02;2899534;82;21022;-91
2022/06/04 07:09:40;;;;;;;11.93;10.65;;;;;;;21.92;67.60;100355.41;2873362;81;21003;-92
2022/06/04 07:13:42;;;;;;;11.12;10.00;;;;;;;21.81;67.62;100356.30;2812108;81;21529;-92
2022/06/04 07:17:43;;;;;;;13.78;11.60;;;;;;;21.91;67.96;100362.70;2881147;82;21030;-90
2022/06/04 07:21:45;;;;;;;17.00;10.70;;;;;;;21.93;67.79;100358.43;2896791;82;21062;-89
2022/06/04 07:25:46;;;;;;;14.70;10.88;;;;;;;22.01;68.00;100352.87;2851420;82;21003;-88
2022/06/04 07:29:48;;;;;;;16.25;11.83;;;;;;;22.11;67.52;100355.21;2899227;82;21037;-87
2022/06/04 07:33:55;;;;;;;10.72;9.38;;;;;;;22.28;67.28;100354.34;2894403;81;22226;-83
2022/06/04 07:37:56;;;;;;;11.30;10.23;;;;;;;22.37;66.93;100345.52;2899482;81;21030;-80
2022/06/04 07:41:57;;;;;;;12.37;10.95;;;;;;;22.36;67.49;100351.45;2900704;82;21027;-88
2022/06/04 07:45:59;;;;;;;11.40;10.05;;;;;;;22.25;67.72;100357.46;2893769;81;21038;-85
2022/06/04 07:50:01;;;;;;;13.22;9.60;;;;;;;22.06;68.42;100363.93;2899553;81;21038;-85
2022/06/04 07:54:04;;;;;;;13.10;11.55;;;;;;;22.02;67.80;100357.75;2899712;81;21054;-87
2022/06/04 07:58:06;;;;;;;14.78;10.28;;;;;;;22.07;67.26;100360.69;2895457;80;21077;-87
2022/06/04 08:02:07;;;;;;;17.55;11.48;;;;;;;22.10;66.64;100363.84;2901776;81;21094;-85
2022/06/04 08:06:10;;;;;;;12.68;10.63;;;;;;;22.10;66.99;100361.13;2899722;81;21058;-87
2022/06/04 08:10:13;;;;;;;15.85;10.93;;;;;;;22.10;66.88;100362.98;2895331;81;20995;-84
2022/06/04 08:14:23;;;;;;;19.32;12.25;;;;;;;22.11;66.78;100353.32;2899961;81;21002;-88
2022/06/04 08:18:25;;;;;;;13.30;10.38;;;;;;;22.28;66.72;100358.91;2901514;81;20979;-89
2022/06/04 08:22:26;;;;;;;11.90;10.45;;;;;;;22.41;65.88;100364.39;2861634;81;21089;-89
2022/06/04 08:26:27;;;;;;;11.80;10.63;;;;;;;22.39;65.86;100364.59;2866126;82;21038;-87
2022/06/04 08:30:29;;;;;;;14.73;12.13;;;;;;;22.42;65.62;100365.25;2861874;81;21104;-86
2022/06/04 08:34:31;;;;;;;14.18;11.45;;;;;;;22.45;66.39;100371.61;2854775;81;21054;-89
2022/06/04 08:38:33;;;;;;;15.43;12.13;;;;;;;22.50;66.22;100382.20;2861645;81;21055;-89
2022/06/04 08:42:46;;;;;;;14.15;11.30;;;;;;;22.54;66.17;100380.75;2827503;83;21065;-90
2022/06/04 08:47:24;;;;;;;17.98;12.03;;;;;;;22.54;65.80;100385.31;2863359;81;21070;-89
2022/06/04 08:51:29;;;;;;;14.40;11.10;;;;;;;22.54;65.98;100389.39;2860630;81;21006;-89
2022/06/04 09:00:18;;;;;;;12.58;10.28;;;;;;;22.46;66.01;100393.07;2859401;81;21000;-86
2022/06/04 09:04:47;;;;;;;16.85;12.23;;;;;;;22.48;66.79;100396.45;2860205;81;21017;-90
2022/06/04 09:09:06;;;;;;;12.93;9.80;;;;;;;22.48;65.72;100392.38;2786672;83;22213;-86
2022/06/04 09:13:34;;;;;;;14.15;9.40;;;;;;;22.43;66.20;100394.84;2659585;86;21063;-83
2022/06/04 09:17:54;;;;;;;11.10;9.73;;;;;;;22.45;66.36;100398.17;2681837;86;21106;-88
2022/06/04 09:21:58;;;;;;;35.98;13.48;;;;;;;22.45;65.39;100395.47;2674077;86;21647;-89
2022/06/04 09:26:10;;;;;;;14.78;10.30;;;;;;;22.50;66.18;100406.59;2688598;86;21095;-91
2022/06/04 09:30:37;;;;;;;15.55;11.00;;;;;;;22.59;64.41;100407.22;2660730;86;21074;-90
2022/06/04 09:34:44;;;;;;;13.05;10.08;;;;;;;22.68;65.65;100411.95;2680519;86;21701;-88
2022/06/04 09:39:03;;;;;;;18.20;10.05;;;;;;;22.80;64.06;100417.65;2698617;86;21109;-89
2022/06/04 09:43:15;;;;;;;10.65;9.58;;;;;;;22.96;65.70;100419.97;2649116;87;21164;-89
2022/06/04 09:47:45;;;;;;;12.07;10.50;;;;;;;23.22;64.63;100418.37;2685687;86;21072;-89
2022/06/04 09:51:46;;;;;;;16.17;10.65;;;;;;;23.68;63.91;100409.12;2774683;83;21062;-90
2022/06/04 09:55:53;;;;;;;12.93;9.83;;;;;;;23.98;61.58;100415.98;2769835;84;21079;-89
2022/06/04 09:59:58;;;;;;;27.40;10.95;;;;;;;24.15;62.04;100420.45;2791335;83;21042;-88
2022/06/04 10:04:14;;;;;;;15.03;11.05;;;;;;;24.22;61.96;100430.80;2771880;84;21075;-88
2022/06/04 10:08:24;;;;;;;14.47;9.95;;;;;;;24.23;62.53;100434.65;2817093;81;21026;-89
2022/06/04 10:17:20;;;;;;;12.35;9.35;;;;;;;24.20;61.71;100441.05;2805101;83;21506;-89
2022/06/04 10:21:27;;;;;;;11.45;9.60;;;;;;;24.19;61.76;100447.54;2745080;84;21050;-89
2022/06/04 10:25:46;;;;;;;11.20;8.98;;;;;;;24.18;62.51;100442.61;2758906;84;21078;-89
2022/06/04 10:30:18;;;;;;;9.78;8.80;;;;;;;24.16;62.71;100447.94;2759196;84;21042;-90
2022/06/04 10:34:45;;;;;;;9.50;8.65;;;;;;;24.24;61.32;100449.91;2758109;84;21763;-90
2022/06/04 10:39:19;;;;;;;9.80;8.03;;;;;;;24.27;60.68;100452.73;2806264;83;21545;-89
2022/06/04 10:43:51;;;;;;;8.38;7.58;;;;;;;24.32;60.71;100448.84;2757899;84;21019;-86
2022/06/04 10:48:25;;;;;;;8.60;7.80;;;;;;;24.22;60.62;100443.03;2703270;86;21047;-89
2022/06/04 10:52:44;;;;;;;12.82;9.38;;;;;;;24.33;61.81;100457.85;2650930;88;21038;-87
2022/06/04 10:57:02;;;;;;;8.78;7.95;;;;;;;24.32;62.06;100463.80;2652301;88;21083;-88
2022/06/04 11:01:27;;;;;;;11.20;8.65;;;;;;;24.26;61.85;100459.22;2700226;86;21101;-87
2022/06/04 11:05:34;;;;;;;9.50;8.60;;;;;;;24.29;62.58;100457.43;2654219;88;21597;-87
2022/06/04 11:09:39;;;;;;;12.55;8.75;;;;;;;24.30;63.44;100455.02;2677278;86;21102;-87
2022/06/04 11:13:52;;;;;;;;;;;;;;;24.29;62.80;100459.33;2668023;87;21027;-89
2022/06/04 11:18:36;;;;;;;15.90;9.40;;;;;;;24.34;62.24;100458.97;2676952;86;20146;-87
2022/06/04 11:22:46;;;;;;;11.93;10.30;;;;;;;24.43;62.93;100460.94;2566125;90;21653;-89
2022/06/04 11:27:13;;;;;;;12.65;9.18;;;;;;;24.33;62.95;100472.80;2630793;89;21101;-87
2022/06/04 11:31:35;;;;;;;10.10;9.08;;;;;;;24.32;63.49;100474.66;2632375;89;21073;-89
2022/06/04 11:36:03;;;;;;;9.95;9.03;;;;;;;24.16;65.08;100471.88;2623805;89;21125;-87
2022/06/04 11:40:38;;;;;;;10.95;9.83;;;;;;;24.04;64.68;100472.20;2623079;89;21549;-89
2022/06/04 11:45:31;;;;;;;11.37;8.73;;;;;;;23.89;66.25;100471.89;2623753;89;21082;-89
2022/06/04 11:49:55;;;;;;;13.05;10.20;;;;;;;23.76;67.99;100468.63;2626825;87;21022;-90
2022/06/04 11:54:41;;;;;;;10.82;9.75;;;;;;;23.60;67.97;100471.78;2624039;89;21030;-86
2022/06/04 11:59:03;;;;;;;18.07;11.95;;;;;;;23.54;70.55;100471.55;2761259;83;21078;-89
2022/06/04 12:03:16;;;;;;;12.53;10.18;;;;;;;23.46;70.55;100470.41;2825108;83;21573;-89
2022/06/04 12:07:39;;;;;;;12.25;10.85;;;;;;;23.44;71.22;100473.00;2825785;83;21073;-89
2022/06/04 12:12:01;;;;;;;16.90;11.28;;;;;;;23.27;72.38;100480.17;2800653;83;21030;-89
2022/06/04 12:16:13;;;;;;;11.28;10.28;;;;;;;23.00;73.50;100483.33;2825857;82;21034;-88
2022/06/04 12:25:04;;;;;;;12.40;11.22;;;;;;;22.57;76.30;100480.31;2863288;81;21057;-89
2022/06/04 12:29:35;;;;;;;11.68;10.50;;;;;;;22.56;76.94;100475.40;2865002;81;21009;-88
2022/06/04 12:33:50;;;;;;;13.03;10.88;;;;;;;22.62;77.73;100480.03;2861025;81;21128;-84
2022/06/04 12:37:59;;;;;;;13.13;11.90;;;;;;;22.71;78.87;100482.56;2865640;81;21080;-85
2022/06/04 12:42:14;;;;;;;13.85;12.47;;;;;;;22.69;78.42;100484.11;2864850;81;20991;-82
2022/06/04 12:46:30;;;;;;;13.80;12.35;;;;;;;22.60;79.43;100490.25;2861165;81;21006;-88
2022/06/04 12:50:34;;;;;;;;;;;;;;;22.43;80.44;100494.28;2866739;81;21006;-88
2022/06/04 12:54:50;;;;;;;14.18;12.75;;;;;;;22.23;82.07;100495.00;2861794;81;20122;-90
2022/06/04 12:58:56;;;;;;;16.70;14.85;;;;;;;22.09;83.29;100497.59;2859828;81;21030;-86
2022/06/04 13:03:14;;;;;;;17.40;15.50;;;;;;;22.00;83.66;100508.23;2864576;81;21061;-89
2022/06/04 13:07:25;;;;;;;17.52;14.18;;;;;;;22.05;83.02;100516.64;2862291;81;20986;-88
2022/06/04 13:11:54;;;;;;;14.80;12.73;;;;;;;22.11;83.04;100519.91;2844036;81;21006;-89
2022/06/04 13:16:03;;;;;;;16.93;13.50;;;;;;;22.21;83.15;100522.80;2853742;81;21081;-90
2022/06/04 13:24:08;;;;;;;15.63;13.83;;;;;;;22.17;84.76;100516.08;3046237;77;22201;-86
2022/06/04 13:28:38;;;;;;;15.53;13.90;;;;;;;22.06;84.88;100518.31;3023556;78;21038;-86
2022/06/04 13:32:40;;;;;;;15.30;13.70;;;;;;;21.82;86.58;100522.27;3001523;78;21044;-87
2022/06/04 13:36:44;;;;;;;15.23;13.40;;;;;;;21.65;85.92;100521.70;2988803;78;21028;-87
2022/06/04 13:40:45;;;;;;;15.13;13.03;;;;;;;21.51;86.24;100518.83;2982968;78;21025;-87
2022/06/04 13:45:10;;;;;;;14.23;12.82;;;;;;;21.44;86.90;100507.11;2982629;78;21087;-88
2022/06/04 13:49:26;;;;;;;13.55;12.25;;;;;;;21.46;87.70;100511.81;3020728;78;21072;-87
2022/06/04 13:53:32;;;;;;;15.68;14.18;;;;;;;21.50;86.66;100509.03;3002924;78;21030;-88
2022/06/04 13:57:41;;;;;;;15.80;13.72;;;;;;;21.60;86.87;100513.27;3017426;78;21014;-88
2022/06/04 14:01:42;;;;;;;17.23;15.53;;;;;;;21.68;87.03;100513.19;2990041;78;21084;-86
2022/06/04 14:05:47;;;;;;;16.77;14.03;;;;;;;21.86;87.86;100507.83;3008005;78;21013;-88
2022/06/04 14:09:54;;;;;;;15.85;14.35;;;;;;;21.90;89.13;100502.34;3028758;78;21044;-81
2022/06/04 14:14:19;;;;;;;19.42;17.45;;;;;;;21.88;88.56;100500.35;2995410;78;20954;-88
2022/06/04 14:18:54;;;;;;;16.42;14.65;;;;;;;21.98;89.21;100496.77;3002568;78;21068;-89
2022/06/04 14:23:10;;;;;;;21.48;17.37;;;;;;;22.09;89.39;100499.45;2954667;79;21010;-86
2022/06/04 14:27:32;;;;;;;17.23;14.20;;;;;;;22.17;88.11;100495.77;2963468;79;21486;-86
2022/06/04 14:31:39;;;;;;;15.03;13.53;;;;;;;22.21;88.12;100502.48;2989369;79;21568;-87
2022/06/04 14:35:40;;;;;;;14.23;12.80;;;;;;;22.19;87.62;100499.96;2960408;79;21003;-87
2022/06/04 14:39:44;;;;;;;17.95;15.00;;;;;;;22.25;87.04;100491.56;2967016;79;20989;-84
2022/06/04 14:44:27;;;;;;;16.23;14.80;;;;;;;22.40;85.64;100492.30;3005993;78;21027;-86
2022/06/04 14:49:13;;;;;;;15.98;14.33;;;;;;;22.54;85.48;100482.39;3012411;78;21329;-84
2022/06/04 14:53:16;;;;;;;16.27;13.13;;;;;;;22.62;85.45;100478.68;2977561;79;20975;-87
2022/06/04 14:57:50;;;;;;;15.25;13.70;;;;;;;22.77;84.82;100480.39;2994205;79;20968;-86
2022/06/04 15:02:14;;;;;;;19.77;15.48;;;;;;;22.88;85.07;100479.83;2993797;77;21081;-85
2022/06/04 15:06:58;;;;;;;12.55;11.45;;;;;;;23.00;84.35;100473.30;2968160;79;21025;-87
2022/06/04 15:11:28;;;;;;;15.38;13.88;;;;;;;23.16;81.28;100477.50;2968097;79;21060;-86
2022/06/04 15:15:56;;;;;;;14.30;12.82;;;;;;;23.22;83.65;100484.00;2997172;79;21018;-87
2022/06/04 15:20:23;;;;;;;16.17;14.63;;;;;;;23.30;83.69;100482.50;2981906;78;20995;-78
2022/06/04 15:24:33;;;;;;;14.13;12.70;;;;;;;23.47;84.83;100481.58;3012348;79;21065;-87
2022/06/04 15:37:59;;;;;;;15.80;12.25;;;;;;;23.47;81.98;100487.52;2966406;79;21006;-87
2022/06/04 15:42:19;;;;;;;13.78;12.45;;;;;;;23.45;83.15;100497.74;2951117;79;21092;-88
2022/06/04 15:46:25;;;;;;;11.85;10.18;;;;;;;23.67;84.13;100482.12;2999615;78;21021;-87
2022/06/04 15:59:39;;;;;;;11.53;10.40;;;;;;;24.28;82.79;100492.45;2985352;79;21058;-90
2022/06/04 16:03:52;;;;;;;12.37;11.30;;;;;;;24.25;80.49;100489.62;2980072;79;21116;-89
2022/06/04 16:08:02;;;;;;;13.13;11.88;;;;;;;24.21;79.60;100489.73;2926768;78;21022;-90
2022/06/04 16:12:34;;;;;;;14.00;12.43;;;;;;;24.17;79.87;100491.73;2987482;77;21014;-86
2022/06/04 16:16:50;;;;;;;13.95;12.55;;;;;;;24.07;81.43;100492.16;2997752;78;21502;-90
2022/06/04 16:21:02;;;;;;;14.58;13.10;;;;;;;24.07;80.48;100485.36;2996058;78;21033;-89
2022/06/04 16:25:09;;;;;;;13.68;12.23;;;;;;;24.07;80.45;100484.85;2974780;79;21061;-89
2022/06/04 16:29:31;;;;;;;12.95;11.75;;;;;;;23.98;80.73;100494.25;2988173;79;21041;-89
2022/06/04 16:33:58;;;;;;;12.65;11.22;;;;;;;23.82;80.21;100501.77;2997968;79;21024;-91
2022/06/04 16:38:16;;;;;;;13.13;11.25;;;;;;;23.77;79.97;100506.97;2939166;79;21038;-88
2022/06/04 16:42:19;;;;;;;11.18;10.08;;;;;;;23.67;79.70;100510.63;2977297;79;21053;-88
2022/06/04 16:46:25;;;;;;;12.25;10.93;;;;;;;23.53;80.16;100501.10;2976746;77;21021;-87
2022/06/04 16:50:29;;;;;;;12.20;11.05;;;;;;;23.39;81.44;100513.00;2989526;78;21041;-89
2022/06/04 16:54:32;;;;;;;17.65;13.32;;;;;;;23.30;83.65;100523.70;3003513;78;21030;-84
2022/06/04 16:58:33;;;;;;;16.23;13.65;;;;;;;23.15;84.23;100527.92;3000392;79;21011;-87
2022/06/04 17:02:57;;;;;;;16.65;13.68;;;;;;;23.11;84.77;100520.70;2992189;78;21012;-86
2022/06/04 17:07:29;;;;;;;16.25;14.68;;;;;;;23.10;84.60;100512.24;2995647;79;21010;-89
2022/06/04 17:11:43;;;;;;;17.10;12.35;;;;;;;23.16;84.76;100511.42;2888806;81;21074;-89
2022/06/04 17:16:04;;;;;;;13.75;12.35;;;;;;;23.11;84.98;100508.48;2913376;81;21077;-89
2022/06/04 17:20:32;;;;;;;14.60;12.90;;;;;;;23.01;84.98;100513.48;2904377;80;20984;-88
2022/06/04 17:25:24;;;;;;;16.02;14.40;;;;;;;23.07;84.55;100514.01;2845982;82;21003;-90
2022/06/04 17:30:00;;;;;;;14.70;12.58;;;;;;;23.14;84.43;100513.50;2833899;81;21027;-86
2022/06/04 17:34:16;;;;;;;14.80;13.35;;;;;;;23.18;83.87;100516.66;2921117;80;21033;-87
2022/06/04 17:38:37;;;;;;;;;;;;;;;23.21;84.04;100522.52;2910492;81;21071;-88
2022/06/04 17:42:42;;;;;;;15.78;12.75;;;;;;;23.29;84.44;100526.11;2905381;81;20142;-88
2022/06/04 17:46:45;;;;;;;13.95;12.55;;;;;;;23.30;84.11;100526.42;2925591;81;21422;-87
2022/06/04 17:50:47;;;;;;;14.13;12.65;;;;;;;23.33;84.11;100528.72;2911748;80;21011;-89
2022/06/04 17:54:48;;;;;;;15.30;13.72;;;;;;;23.12;85.17;100534.58;2879562;81;21017;-89
2022/06/04 17:58:49;;;;;;;16.12;14.35;;;;;;;22.90;85.94;100531.17;2920484;80;21506;-90
2022/06/04 18:02:54;;;;;;;14.80;13.40;;;;;;;22.86;86.29;100519.88;2918600;78;21016;-86
2022/06/04 18:06:56;;;;;;;15.18;13.55;;;;;;;22.80;86.35;100512.02;2912781;80;21486;-87
2022/06/04 18:10:57;;;;;;;17.00;13.30;;;;;;;22.80;86.48;100508.48;2919629;80;20985;-90
2022/06/04 18:14:59;;;;;;;15.15;13.65;;;;;;;22.89;86.53;100518.11;2882527;82;21036;-87
2022/06/04 18:19:01;;;;;;;18.27;14.93;;;;;;;22.75;86.89;100526.70;2875001;81;21026;-85
2022/06/04 18:23:03;;;;;;;15.08;13.35;;;;;;;22.71;87.00;100523.23;2855362;81;20982;-86
2022/06/04 18:27:05;;;;;;;15.60;14.25;;;;;;;22.70;85.88;100525.63;2893753;82;20947;-86
2022/06/04 18:31:18;;;;;;;15.15;13.55;;;;;;;22.61;85.62;100532.58;2903710;81;21014;-85
2022/06/04 18:35:21;;;;;;;18.95;13.30;;;;;;;22.45;85.26;100530.16;2862748;81;21004;-85
2022/06/04 18:39:22;;;;;;;14.18;12.70;;;;;;;22.34;85.40;100530.19;2880559;81;21015;-86
2022/06/04 18:56:23;;;;;;;18.07;16.10;;;;;;;22.04;85.87;100544.76;2885356;82;20971;-86
2022/06/04 19:00:24;;;;;;;19.65;16.30;;;;;;;21.98;85.30;100557.70;2878628;82;21609;-83
2022/06/04 19:04:25;;;;;;;17.10;13.90;;;;;;;21.90;85.10;100568.69;2832928;82;21031;-84
2022/06/04 19:08:27;;;;;;;18.70;14.83;;;;;;;21.78;84.60;100578.66;2942748;81;21509;-86
2022/06/04 19:16:49;;;;;;;17.80;13.75;;;;;;;21.50;84.62;100599.69;2916845;80;21038;-85
2022/06/04 19:25:10;;;;;;;22.93;16.27;;;;;;;21.30;84.36;100599.97;2894136;80;21034;-84
2022/06/04 19:29:13;;;;;;;22.58;15.08;;;;;;;21.22;83.67;100605.82;2899374;82;21002;-86
2022/06/04 19:33:17;;;;;;;17.57;14.28;;;;;;;21.09;83.39;100613.75;2897406;81;21053;-86
2022/06/04 19:37:19;;;;;;;21.17;16.62;;;;;;;20.96;83.54;100623.87;2858848;80;21077;-88
2022/06/04 19:41:22;;;;;;;18.40;16.42;;;;;;;20.90;84.19;100626.80;2894973;81;21011;-88
2022/06/04 19:45:23;;;;;;;20.72;14.90;;;;;;;20.76;84.49;100628.45;2851046;81;21042;-85
2022/06/04 19:49:39;;;;;;;20.45;15.40;;;;;;;20.69;84.98;100632.39;2826767;82;21086;-91
2022/06/04 19:58:00;;;;;;;17.57;15.72;;;;;;;20.60;84.73;100639.41;2883571;81;21875;-87
2022/06/04 20:02:04;;;;;;;25.30;15.80;;;;;;;20.51;84.51;100648.10;2879497;80;21348;-87
2022/06/04 20:06:06;;;;;;;19.12;16.67;;;;;;;20.43;84.37;100650.36;2906705;81;20979;-89
2022/06/04 20:10:10;;;;;;;15.95;14.33;;;;;;;20.35;84.27;100648.56;2880575;81;21045;-88
2022/06/04 20:14:11;;;;;;;16.42;14.40;;;;;;;20.24;83.87;100644.93;2861904;82;21002;-88
2022/06/04 20:18:13;;;;;;;18.75;15.10;;;;;;;19.87;86.24;100655.98;2875330;80;21025;-89